Time;durP1;ratioP1;P1;durP2;ratioP2;P2;SDS_P1;SDS_P2;PMS_P1;PMS_P2;Temp;Humidity;BMP_temperature;BMP_pressure;BME280_temperature;BME280_humidity;BME280_pressure;Samples;Min_cycle;Max_cycle;Signal;HPM_P1;HPM_P2
2023/11/16 00:03:24;;;;;;;144.33;47.00;;;;;;;2.43;100.00;100622.34;5012643;57;1140574;-73
2023/11/16 00:08:29;;;;;;;67.47;27.47;;;;;;;2.42;100.00;100632.84;5138819;56;1142652;-72
2023/11/16 00:13:35;;;;;;;81.70;26.27;;;;;;;2.44;100.00;100631.84;5138959;56;1140589;-73
2023/11/16 00:18:41;;;;;;;28.83;14.10;;;;;;;2.46;100.00;100637.00;5138454;56;1140834;-72
2023/11/16 00:23:48;;;;;;;42.47;18.47;;;;;;;2.29;100.00;100645.53;5159350;56;1141100;-72
2023/11/16 00:28:55;;;;;;;44.95;18.23;;;;;;;2.07;100.00;100642.12;5058611;56;1140975;-73
2023/11/16 00:34:00;;;;;;;27.20;12.60;;;;;;;1.93;100.00;100644.44;5038544;57;1141068;-72
2023/11/16 00:39:07;;;;;;;24.45;13.95;;;;;;;1.81;100.00;100649.70;5074335;57;1140708;-72
2023/11/16 00:44:19;;;;;;;41.73;15.83;;;;;;;1.76;100.00;100647.26;5128190;56;1140996;-72
2023/11/16 00:49:21;;;;;;;60.90;20.40;;;;;;;1.97;100.00;100638.20;5138047;56;1140690;-72
2023/11/16 00:54:27;;;;;;;45.57;15.87;;;;;;;2.17;100.00;100638.22;5134930;56;1140824;-72
2023/11/16 00:59:32;;;;;;;105.17;19.30;;;;;;;2.23;100.00;100636.67;5067738;56;1140979;-73
2023/11/16 01:04:39;;;;;;;72.07;17.50;;;;;;;2.16;100.00;100644.34;5090707;55;1142856;-71
2023/11/16 01:09:45;;;;;;;62.80;18.85;;;;;;;2.09;100.00;100640.30;5123304;56;1140747;-71
2023/11/16 01:14:59;;;;;;;58.77;16.60;;;;;;;2.09;100.00;100638.55;5098070;56;1140789;-72
2023/11/16 01:19:59;;;;;;;37.37;13.03;;;;;;;2.09;100.00;100626.81;5056438;57;1140921;-72
2023/11/16 01:25:14;;;;;;;27.03;11.10;;;;;;;2.01;100.00;100624.09;5064259;56;1140778;-72
2023/11/16 01:30:13;;;;;;;36.68;11.95;;;;;;;2.00;100.00;100626.31;5144201;56;1140907;-72
2023/11/16 01:35:21;;;;;;;37.05;13.60;;;;;;;2.01;100.00;100619.73;5058398;56;1140642;-72
2023/11/16 01:40:27;;;;;;;29.03;12.73;;;;;;;1.92;100.00;100629.25;5131930;56;1140680;-72
2023/11/16 01:45:35;;;;;;;28.27;13.87;;;;;;;1.92;100.00;100629.25;5163955;56;1141205;-72
2023/11/16 01:50:41;;;;;;;18.90;11.43;;;;;;;2.00;100.00;100622.41;5143261;56;1140595;-72
2023/11/16 01:55:49;;;;;;;20.02;11.12;;;;;;;1.99;100.00;100622.85;5143244;56;1140997;-71
2023/11/16 02:00:56;;;;;;;26.23;13.57;;;;;;;1.89;100.00;100620.23;5159884;56;1140969;-71
2023/11/16 02:06:04;;;;;;;27.35;14.03;;;;;;;1.78;100.00;100624.19;5130408;56;1141003;-72
2023/11/16 02:11:10;;;;;;;30.63;14.30;;;;;;;1.71;100.00;100623.12;5125874;56;1140684;-72
2023/11/16 02:16:16;;;;;;;29.57;13.30;;;;;;;1.66;100.00;100600.31;5146980;56;1140801;-72
2023/11/16 02:21:22;;;;;;;26.57;13.70;;;;;;;1.71;100.00;100607.92;5127062;56;1140769;-72
2023/11/16 02:26:29;;;;;;;29.80;13.77;;;;;;;1.79;100.00;100597.20;4982687;57;1140989;-71
2023/11/16 02:31:34;;;;;;;24.53;12.87;;;;;;;1.86;100.00;100602.55;5150292;56;1140627;-72
2023/11/16 02:36:40;;;;;;;25.07;13.27;;;;;;;1.86;100.00;100596.03;5125773;56;1140812;-72
2023/11/16 02:41:47;;;;;;;34.03;16.12;;;;;;;1.78;100.00;100602.87;5127105;56;1140975;-72
2023/11/16 02:46:55;;;;;;;36.07;14.27;;;;;;;1.85;100.00;100596.94;5146977;56;1140794;-72
2023/11/16 02:52:00;;;;;;;37.70;13.73;;;;;;;1.89;100.00;100601.98;5127419;56;1140847;-72
2023/11/16 02:57:07;;;;;;;28.87;11.73;;;;;;;1.97;100.00;100596.02;5093186;56;1140783;-72
2023/11/16 03:02:14;;;;;;;21.70;12.07;;;;;;;2.01;100.00;100592.80;5063146;56;1141054;-72
2023/11/16 03:07:21;;;;;;;28.00;11.70;;;;;;;1.94;100.00;100593.98;4935168;58;1140863;-71
2023/11/16 03:12:26;;;;;;;26.00;12.90;;;;;;;1.96;100.00;100609.11;5137135;56;1140754;-71
2023/11/16 03:17:34;;;;;;;25.37;11.80;;;;;;;2.06;100.00;100609.97;5157936;56;1140906;-72
2023/11/16 03:22:42;;;;;;;47.40;16.97;;;;;;;2.18;100.00;100612.52;5137793;56;1140992;-72
2023/11/16 03:27:48;;;;;;;41.77;14.03;;;;;;;2.21;100.00;100625.45;5086216;56;1140947;-72
2023/11/16 03:32:53;;;;;;;31.30;16.70;;;;;;;2.15;100.00;100613.94;5137205;56;1141090;-72
2023/11/16 03:37:59;;;;;;;20.05;12.58;;;;;;;2.12;100.00;100608.88;5138242;56;1140602;-72
2023/11/16 03:43:04;;;;;;;26.87;12.15;;;;;;;2.14;100.00;100607.52;5138020;56;1141130;-72
2023/11/16 03:48:11;;;;;;;21.57;12.73;;;;;;;2.17;100.00;100602.99;5157845;56;1140775;-72
2023/11/16 03:53:17;;;;;;;20.30;10.63;;;;;;;2.26;100.00;100606.54;5105830;56;1140735;-71
2023/11/16 03:58:23;;;;;;;30.07;11.37;;;;;;;2.33;100.00;100600.59;5053770;56;1141081;-71
2023/11/16 04:03:28;;;;;;;25.70;10.43;;;;;;;2.33;100.00;100594.91;5095908;56;1140903;-72
2023/11/16 04:08:35;;;;;;;20.03;11.37;;;;;;;2.33;100.00;100594.06;5141394;56;1140731;-72
2023/11/16 04:13:40;;;;;;;24.27;12.43;;;;;;;2.29;100.00;100597.25;5142482;56;1140967;-72
2023/11/16 04:18:48;;;;;;;22.47;13.70;;;;;;;2.28;100.00;100584.30;5142077;56;1140904;-72
2023/11/16 04:24:00;;;;;;;25.60;13.35;;;;;;;2.28;100.00;100585.61;5162671;56;1140878;-72
2023/11/16 04:29:03;;;;;;;18.73;11.57;;;;;;;2.29;100.00;100578.98;5139132;56;1140843;-72
2023/11/16 04:34:10;;;;;;;37.95;17.95;;;;;;;2.36;100.00;100583.50;5142091;56;1140847;-71
2023/11/16 04:39:17;;;;;;;26.17;14.50;;;;;;;2.46;100.00;100573.89;5162763;56;1140857;-72
2023/11/16 04:44:23;;;;;;;24.07;14.03;;;;;;;2.58;100.00;100572.53;5140597;56;1142886;-72
2023/11/16 04:49:28;;;;;;;27.23;15.10;;;;;;;2.69;100.00;100576.82;5111099;56;1143045;-72
2023/11/16 04:54:34;;;;;;;25.30;15.07;;;;;;;2.82;100.00;100573.20;5077395;57;1143146;-72
2023/11/16 04:59:39;;;;;;;20.77;14.40;;;;;;;2.92;100.00;100564.02;5057020;57;1142811;-72
2023/11/16 05:04:45;;;;;;;24.57;14.38;;;;;;;3.00;100.00;100557.16;5101856;56;1142874;-72
2023/11/16 05:09:51;;;;;;;25.93;14.53;;;;;;;3.05;100.00;100550.81;5161041;56;1142830;-72
2023/11/16 05:14:57;;;;;;;26.43;15.53;;;;;;;3.13;100.00;100547.38;5140394;56;1142884;-71
2023/11/16 05:20:03;;;;;;;28.70;15.47;;;;;;;3.18;100.00;100545.41;5138920;56;1143241;-72
2023/11/16 05:25:10;;;;;;;22.37;14.87;;;;;;;3.24;100.00;100539.02;5096876;56;1142980;-72
2023/11/16 05:30:16;;;;;;;29.50;15.25;;;;;;;3.30;100.00;100536.13;5140008;56;1142771;-71
2023/11/16 05:35:22;;;;;;;26.60;14.63;;;;;;;3.38;100.00;100543.59;5139693;56;1142960;-72
2023/11/16 05:40:27;;;;;;;29.77;16.67;;;;;;;3.43;100.00;100539.00;5160196;56;1143135;-72
2023/11/16 05:45:33;;;;;;;31.00;17.97;;;;;;;3.47;100.00;100541.87;5140094;56;1140644;-72
2023/11/16 05:50:38;;;;;;;28.13;16.97;;;;;;;3.48;100.00;100540.48;5088838;56;1141105;-72
2023/11/16 05:55:44;;;;;;;48.00;27.10;;;;;;;3.52;100.00;100525.48;5055726;57;1142289;-72
2023/11/16 06:00:51;;;;;;;47.98;25.35;;;;;;;3.54;100.00;100523.64;5074144;57;1142928;-72
2023/11/16 06:05:58;;;;;;;28.73;17.90;;;;;;;3.58;100.00;100513.88;5120918;56;1142804;-72
2023/11/16 06:11:04;;;;;;;25.87;15.97;;;;;;;3.62;100.00;100514.98;5101852;56;1143011;-74
2023/11/16 06:16:12;;;;;;;28.50;17.30;;;;;;;3.67;100.00;100503.80;5081883;56;1143097;-73
2023/11/16 06:21:18;;;;;;;25.60;15.65;;;;;;;3.71;100.00;100495.36;5096993;55;1143076;-73
2023/11/16 06:26:25;;;;;;;31.03;15.50;;;;;;;3.71;100.00;100477.89;5153534;55;1142785;-72
2023/11/16 06:31:32;;;;;;;22.50;14.67;;;;;;;3.73;100.00;100477.36;5103580;55;1143010;-72
2023/11/16 06:36:37;;;;;;;41.93;19.37;;;;;;;3.78;100.00;100483.67;5145032;55;1142866;-69
2023/11/16 06:41:43;;;;;;;27.53;15.53;;;;;;;3.84;100.00;100485.51;5135199;55;1143235;-67
2023/11/16 06:46:49;;;;;;;46.73;25.37;;;;;;;3.87;100.00;100489.74;5132334;56;1143050;-68
2023/11/16 06:51:55;;;;;;;39.90;21.57;;;;;;;3.92;100.00;100498.22;5153036;56;1142983;-70
2023/11/16 06:57:00;;;;;;;37.43;20.70;;;;;;;3.98;100.00;100495.73;5125110;55;1142999;-73
2023/11/16 07:02:07;;;;;;;44.93;21.12;;;;;;;4.01;100.00;100483.80;5125744;56;1143162;-72
2023/11/16 07:07:13;;;;;;;52.40;23.42;;;;;;;4.03;100.00;100482.81;5010373;57;1143195;-72
2023/11/16 07:12:20;;;;;;;51.08;27.27;;;;;;;4.08;100.00;100499.59;5072071;56;1143070;-71
2023/11/16 07:17:26;;;;;;;58.07;28.77;;;;;;;4.15;100.00;100497.03;5042184;56;1142910;-71
2023/11/16 07:22:32;;;;;;;49.87;25.17;;;;;;;4.21;100.00;100492.34;5139581;56;1142975;-71
2023/11/16 07:27:39;;;;;;;60.57;34.60;;;;;;;4.27;100.00;100495.11;5094184;56;1142815;-74
2023/11/16 07:32:44;;;;;;;82.67;46.13;;;;;;;4.33;100.00;100482.14;5120547;55;1142898;-71
2023/11/16 07:37:50;;;;;;;65.08;34.65;;;;;;;4.37;100.00;100464.89;5056243;56;1142850;-70
2023/11/16 07:42:56;;;;;;;45.77;25.90;;;;;;;4.37;100.00;100464.89;5066232;56;1140920;-72
2023/11/16 07:48:04;;;;;;;38.38;22.82;;;;;;;4.47;100.00;100463.93;5078306;55;1143015;-74
2023/11/16 07:53:10;;;;;;;34.23;18.35;;;;;;;4.53;100.00;100455.30;5063040;56;1143035;-73
2023/11/16 07:58:17;;;;;;;44.25;26.42;;;;;;;4.63;100.00;100470.50;5074766;56;1143115;-73
2023/11/16 08:08:49;;;;;;;47.17;24.43;;;;;;;4.77;100.00;100466.67;5105236;56;1143194;-73
2023/11/16 08:13:57;;;;;;;52.83;28.02;;;;;;;4.83;100.00;100458.48;5060035;56;1142976;-67
2023/11/16 08:19:04;;;;;;;51.65;28.30;;;;;;;4.87;100.00;100456.09;5088445;56;1142852;-66
2023/11/16 08:24:14;;;;;;;49.73;27.93;;;;;;;4.89;100.00;100443.25;5057487;56;1142915;-69
2023/11/16 08:29:18;;;;;;;50.03;28.30;;;;;;;4.92;100.00;100442.25;5043045;57;1143013;-69
2023/11/16 08:34:26;;;;;;;54.70;29.77;;;;;;;4.95;100.00;100436.84;5068174;57;1142721;-72
2023/11/16 08:39:31;;;;;;;54.30;28.57;;;;;;;4.98;100.00;100428.81;4971773;58;1142918;-71
2023/11/16 08:44:37;;;;;;;55.57;30.60;;;;;;;5.03;100.00;100429.87;5052740;56;1142687;-75
2023/11/16 08:49:42;;;;;;;50.90;27.50;;;;;;;5.09;100.00;100432.13;4979021;57;1142860;-74
2023/11/16 08:54:48;;;;;;;46.00;25.62;;;;;;;5.14;100.00;100440.13;5070821;56;1142796;-74
2023/11/16 09:00:25;;;;;;;47.03;24.83;;;;;;;5.22;100.00;100434.44;5027290;57;1143286;-71
2023/11/16 09:05:06;;;;;;;;;;;;;;;5.27;100.00;100430.63;5037659;57;1142869;-71
2023/11/16 09:10:14;;;;;;;41.02;23.62;;;;;;;5.37;100.00;100427.00;5082829;57;976090;-73
2023/11/16 09:15:20;;;;;;;43.95;25.20;;;;;;;5.42;100.00;100423.66;4989185;57;1140712;-70
2023/11/16 09:20:28;;;;;;;64.90;39.53;;;;;;;5.51;100.00;100421.80;5043864;56;1142987;-71
2023/11/16 09:25:34;;;;;;;51.70;31.77;;;;;;;5.59;100.00;100420.06;5063695;56;1143080;-71
2023/11/16 09:30:40;;;;;;;35.83;22.70;;;;;;;5.66;100.00;100407.78;5040721;56;1142830;-74
2023/11/16 09:35:46;;;;;;;35.97;22.50;;;;;;;5.74;100.00;100402.57;4986565;57;1142932;-75
2023/11/16 09:40:51;;;;;;;49.13;30.63;;;;;;;5.85;100.00;100399.67;5102022;56;1142615;-72
2023/11/16 09:45:57;;;;;;;68.97;37.07;;;;;;;6.03;100.00;100374.12;5045105;56;1142934;-73
2023/11/16 09:51:05;;;;;;;30.83;21.07;;;;;;;6.03;100.00;100374.12;5107261;55;1143003;-73
2023/11/16 09:56:11;;;;;;;38.70;23.95;;;;;;;6.11;100.00;100375.80;5109042;56;1142933;-73
2023/11/16 10:01:18;;;;;;;39.93;21.03;;;;;;;6.19;100.00;100363.06;5092643;55;1142955;-73
2023/11/16 10:06:24;;;;;;;31.83;20.57;;;;;;;6.26;100.00;100369.60;5051760;56;1142752;-74
2023/11/16 10:11:31;;;;;;;26.63;18.40;;;;;;;6.32;100.00;100356.57;5152432;56;1142664;-72
2023/11/16 10:16:36;;;;;;;25.17;17.40;;;;;;;6.39;100.00;100359.67;5102394;56;1143390;-72
2023/11/16 10:21:48;;;;;;;38.17;21.93;;;;;;;6.46;100.00;100353.08;5100917;56;1143013;-73
2023/11/16 10:26:55;;;;;;;36.00;18.87;;;;;;;6.51;100.00;100343.97;5050308;56;1143124;-73
2023/11/16 10:32:04;;;;;;;56.43;30.80;;;;;;;6.57;100.00;100344.88;5080410;56;1142886;-73
2023/11/16 10:37:13;;;;;;;107.37;52.95;;;;;;;6.61;100.00;100329.30;5003416;57;1148826;-72
2023/11/16 10:42:19;;;;;;;64.10;25.23;;;;;;;6.66;100.00;100321.13;5034972;57;1145178;-72
2023/11/16 10:47:25;;;;;;;50.63;27.10;;;;;;;6.68;100.00;100324.03;5060457;57;1142959;-74
2023/11/16 10:52:33;;;;;;;56.10;21.93;;;;;;;6.70;100.00;100323.47;5055272;57;1142918;-74
2023/11/16 10:57:40;;;;;;;27.50;15.60;;;;;;;6.72;100.00;100314.17;5053990;57;1142824;-72
2023/11/16 11:02:49;;;;;;;43.78;19.77;;;;;;;6.77;100.00;100308.13;5055408;56;1142717;-73
2023/11/16 11:08:02;;;;;;;38.07;19.87;;;;;;;6.80;100.00;100298.73;5047803;57;1142844;-73
2023/11/16 11:13:11;;;;;;;26.00;14.57;;;;;;;6.84;100.00;100288.39;5030896;57;1142799;-74
2023/11/16 11:18:17;;;;;;;52.00;27.82;;;;;;;6.89;100.00;100282.81;5050967;57;1142993;-73
2023/11/16 11:23:23;;;;;;;23.07;14.78;;;;;;;6.92;100.00;100282.14;5071466;57;1143079;-73
2023/11/16 11:28:28;;;;;;;24.33;15.03;;;;;;;6.97;100.00;100286.63;5053204;56;1142943;-72
2023/11/16 11:33:41;;;;;;;26.30;13.43;;;;;;;7.00;100.00;100281.18;5072450;56;1143051;-66
2023/11/16 11:38:56;;;;;;;20.37;12.75;;;;;;;7.00;100.00;100279.02;5054177;56;1143347;-68
2023/11/16 11:44:05;;;;;;;35.17;19.35;;;;;;;7.01;100.00;100269.72;5092028;56;1142833;-69
2023/11/16 11:49:15;;;;;;;28.50;16.73;;;;;;;7.05;100.00;100269.02;5106299;56;1143124;-66
2023/11/16 11:54:21;;;;;;;41.63;24.90;;;;;;;7.06;100.00;100261.03;5086086;56;1142962;-74
2023/11/16 11:59:26;;;;;;;18.13;11.40;;;;;;;7.10;100.00;100252.94;5047374;56;1143170;-73
2023/11/16 12:04:36;;;;;;;25.62;11.73;;;;;;;7.10;100.00;100242.42;5127850;56;1142689;-72
2023/11/16 12:09:51;;;;;;;24.50;15.47;;;;;;;7.13;100.00;100233.02;5120842;56;1143106;-73
2023/11/16 12:14:52;;;;;;;36.50;20.48;;;;;;;7.15;100.00;100233.29;5119553;56;1142847;-72
2023/11/16 12:19:58;;;;;;;26.00;12.90;;;;;;;7.20;100.00;100234.27;5074745;56;1143060;-72
2023/11/16 12:25:05;;;;;;;21.10;10.80;;;;;;;7.23;100.00;100228.80;5043418;56;1142973;-72
2023/11/16 12:30:18;;;;;;;45.63;19.53;;;;;;;7.25;100.00;100220.34;4989975;56;1143180;-74
2023/11/16 12:35:23;;;;;;;48.73;27.23;;;;;;;7.29;100.00;100224.45;5066504;56;1142829;-68
2023/11/16 12:40:29;;;;;;;27.77;16.67;;;;;;;7.32;100.00;100219.83;5049784;56;1142895;-70
2023/11/16 12:45:35;;;;;;;25.60;14.60;;;;;;;7.33;100.00;100220.67;5062194;56;1143433;-69
2023/11/16 12:50:44;;;;;;;51.18;25.62;;;;;;;7.33;100.00;100215.41;5069169;56;1143036;-69
2023/11/16 12:55:48;;;;;;;30.70;20.03;;;;;;;7.34;100.00;100207.86;5077500;56;1142904;-66
2023/11/16 13:00:56;;;;;;;19.45;10.25;;;;;;;7.36;100.00;100206.81;5095775;56;1142914;-66
2023/11/16 13:06:02;;;;;;;39.87;15.80;;;;;;;7.36;100.00;100201.55;5072224;56;1142666;-72
2023/11/16 13:11:08;;;;;;;20.52;12.07;;;;;;;7.43;100.00;100205.08;5095038;56;1144870;-75
2023/11/16 13:16:15;;;;;;;22.37;11.10;;;;;;;7.47;100.00;100197.34;5047400;56;1142936;-73
2023/11/16 13:21:21;;;;;;;35.43;17.30;;;;;;;7.48;100.00;100202.51;5048511;56;1143008;-74
2023/11/16 13:26:26;;;;;;;27.42;13.80;;;;;;;7.49;100.00;100208.58;5116912;56;1143239;-73
2023/11/16 13:31:32;;;;;;;58.27;24.87;;;;;;;7.48;100.00;100206.45;5053557;56;1142948;-72
2023/11/16 13:36:37;;;;;;;35.07;16.77;;;;;;;7.48;100.00;100194.61;5068568;56;1142962;-74
2023/11/16 13:41:44;;;;;;;24.90;12.07;;;;;;;7.50;100.00;100193.16;5138285;56;1142918;-72
2023/11/16 13:46:50;;;;;;;14.17;8.87;;;;;;;7.49;100.00;100189.69;5112055;56;1142880;-73
2023/11/16 13:51:55;;;;;;;20.63;9.87;;;;;;;7.50;100.00;100190.06;5076609;55;1140802;-73
2023/11/16 13:57:01;;;;;;;20.33;10.83;;;;;;;7.52;100.00;100186.84;5081148;56;1140753;-72
2023/11/16 14:02:07;;;;;;;70.90;30.77;;;;;;;7.53;100.00;100191.16;5072716;56;1142860;-72
2023/11/16 14:07:13;;;;;;;40.97;24.90;;;;;;;7.53;100.00;100185.06;5077791;56;1142854;-72
2023/11/16 14:12:19;;;;;;;29.12;11.90;;;;;;;7.53;100.00;100183.74;4970664;57;1142925;-74
2023/11/16 14:17:24;;;;;;;64.27;32.00;;;;;;;7.54;100.00;100173.59;4991068;57;1142948;-72
2023/11/16 14:22:32;;;;;;;50.97;21.80;;;;;;;7.55;100.00;100173.48;4970848;57;1143072;-75
2023/11/16 14:27:37;;;;;;;47.60;17.37;;;;;;;7.59;100.00;100178.06;5004373;56;1143046;-72
2023/11/16 14:32:43;;;;;;;30.53;13.53;;;;;;;7.59;100.00;100172.33;5054420;56;1143054;-73
2023/11/16 14:37:49;;;;;;;33.23;13.20;;;;;;;7.61;100.00;100165.16;5158875;56;1142934;-73
2023/11/16 14:42:54;;;;;;;26.70;18.90;;;;;;;7.61;100.00;100167.80;5138097;56;1142841;-72
2023/11/16 14:48:00;;;;;;;17.32;8.25;;;;;;;7.61;100.00;100157.74;5136928;56;1142834;-73
2023/11/16 14:53:05;;;;;;;17.57;7.30;;;;;;;7.57;100.00;100151.01;5158807;56;1140798;-73
2023/11/16 14:58:11;;;;;;;13.23;6.83;;;;;;;7.54;100.00;100145.95;5138713;56;1141054;-73
2023/11/16 15:03:17;;;;;;;16.57;6.97;;;;;;;7.52;100.00;100136.85;5138354;56;1140759;-73
2023/11/16 15:08:23;;;;;;;18.60;10.78;;;;;;;7.56;100.00;100141.43;5159645;56;1141123;-73
2023/11/16 15:13:28;;;;;;;17.60;7.40;;;;;;;7.56;100.00;100134.38;5138174;56;1142943;-73
2023/11/16 15:18:34;;;;;;;18.40;7.47;;;;;;;7.50;100.00;100132.17;5127142;55;1140954;-74
2023/11/16 15:23:40;;;;;;;20.50;11.27;;;;;;;7.48;100.00;100128.83;5139295;56;1141203;-73
2023/11/16 15:28:47;;;;;;;15.40;6.37;;;;;;;7.47;100.00;100115.31;5090420;56;1143040;-73
2023/11/16 15:33:52;;;;;;;19.33;8.10;;;;;;;7.47;100.00;100110.05;5055450;57;1141041;-73
2023/11/16 15:39:10;;;;;;;38.53;16.60;;;;;;;7.45;100.00;100121.16;5075533;57;1140898;-72
2023/11/16 15:44:08;;;;;;;22.22;12.03;;;;;;;7.44;100.00;100118.63;5053775;56;1142881;-72
2023/11/16 15:49:14;;;;;;;31.23;16.43;;;;;;;7.43;100.00;100120.89;5054779;56;1143048;-72
2023/11/16 15:54:20;;;;;;;28.02;12.18;;;;;;;7.37;100.00;100109.84;5067718;56;1142840;-72
2023/11/16 15:59:25;;;;;;;61.63;29.55;;;;;;;7.34;100.00;100114.00;5050480;57;1142921;-73
2023/11/16 16:04:32;;;;;;;153.43;71.20;;;;;;;7.33;100.00;100108.88;5012694;57;1143057;-72
2023/11/16 16:09:38;;;;;;;33.87;18.47;;;;;;;7.34;100.00;100108.73;5075076;57;1145069;-72
2023/11/16 16:14:43;;;;;;;46.73;24.17;;;;;;;7.38;100.00;100114.16;5032515;56;1143280;-73
2023/11/16 16:19:49;;;;;;;30.90;16.27;;;;;;;7.40;100.00;100107.47;5053434;56;1143014;-72
2023/11/16 16:24:55;;;;;;;23.37;10.37;;;;;;;7.38;100.00;100122.52;5063192;57;1142939;-72
2023/11/16 16:30:02;;;;;;;5.87;4.17;;;;;;;7.15;100.00;100132.52;5075435;56;1142938;-72
2023/11/16 16:35:08;;;;;;;8.83;3.40;;;;;;;6.88;100.00;100141.33;5115074;56;1138687;-72
2023/11/16 16:40:16;;;;;;;6.33;4.63;;;;;;;6.60;100.00;100125.28;5074665;56;1138761;-73
2023/11/16 16:45:21;;;;;;;3.70;1.65;;;;;;;6.44;100.00;100108.02;5069628;56;1138431;-72
2023/11/16 16:50:27;;;;;;;6.50;5.73;;;;;;;6.34;100.00;100097.30;5127040;56;1138704;-72
2023/11/16 16:55:32;;;;;;;9.33;3.03;;;;;;;6.33;100.00;100102.19;5125190;55;1138742;-72
2023/11/16 17:00:38;;;;;;;22.37;10.53;;;;;;;6.40;100.00;100096.91;5100954;56;1138831;-72
2023/11/16 17:05:44;;;;;;;48.67;22.60;;;;;;;6.47;100.00;100098.63;5103021;56;1143051;-73
2023/11/16 17:10:49;;;;;;;36.73;20.23;;;;;;;6.58;100.00;100094.33;4959757;56;1143255;-72
2023/11/16 17:15:55;;;;;;;29.50;16.20;;;;;;;6.58;100.00;100094.33;5146544;56;1142916;-72
2023/11/16 17:21:03;;;;;;;43.50;23.47;;;;;;;6.50;100.00;100094.02;5124801;56;1142957;-72
2023/11/16 17:26:08;;;;;;;40.30;22.43;;;;;;;6.34;100.00;100092.89;5133542;56;1140771;-73
2023/11/16 17:31:13;;;;;;;27.40;16.60;;;;;;;6.24;100.00;100094.45;5137632;56;1141065;-72
2023/11/16 17:36:19;;;;;;;53.35;25.80;;;;;;;6.14;100.00;100101.23;5122861;56;1141043;-73
2023/11/16 17:41:24;;;;;;;594.97;261.85;;;;;;;6.07;100.00;100110.48;5137586;56;1142950;-73
2023/11/16 17:46:30;;;;;;;709.25;313.55;;;;;;;6.10;100.00;100101.56;5156807;56;1146895;-73
2023/11/16 17:51:37;;;;;;;446.37;187.13;;;;;;;6.15;100.00;100097.67;5137284;56;1147008;-72
2023/11/16 17:56:43;;;;;;;132.23;70.73;;;;;;;6.27;100.00;100097.33;5136128;56;1147152;-72
2023/11/16 18:01:49;;;;;;;71.82;40.60;;;;;;;6.35;100.00;100108.18;5137278;56;1145127;-72
2023/11/16 18:06:55;;;;;;;30.03;20.83;;;;;;;6.40;100.00;100116.61;5158281;56;1142942;-72
2023/11/16 18:12:02;;;;;;;29.63;18.60;;;;;;;6.39;100.00;100124.58;5138167;56;1142770;-73
2023/11/16 18:17:07;;;;;;;84.87;38.90;;;;;;;6.32;100.00;100118.41;5137041;56;1142716;-71
2023/11/16 18:22:14;;;;;;;101.78;45.98;;;;;;;6.28;100.00;100116.08;5070025;56;1143099;-74
2023/11/16 18:27:19;;;;;;;65.40;29.87;;;;;;;6.17;100.00;100120.73;5055349;56;1144943;-71
2023/11/16 18:32:25;;;;;;;92.03;44.30;;;;;;;6.11;100.00;100120.31;5113002;55;1142834;-71
2023/11/16 18:37:30;;;;;;;47.30;24.23;;;;;;;6.14;100.00;100124.03;5079874;55;1142986;-73
2023/11/16 18:42:41;;;;;;;12.60;7.27;;;;;;;6.13;100.00;100124.97;5025617;56;1143019;-73
2023/11/16 18:47:46;;;;;;;14.83;8.43;;;;;;;6.16;100.00;100133.49;5053914;56;1140929;-70
2023/11/16 18:52:53;;;;;;;32.80;16.27;;;;;;;6.08;100.00;100137.11;5059707;56;1140960;-71
2023/11/16 18:57:59;;;;;;;50.67;25.77;;;;;;;6.02;100.00;100148.46;5011081;57;1143026;-71
2023/11/16 19:03:14;;;;;;;30.37;11.93;;;;;;;5.94;100.00;100154.22;5062063;56;1142917;-73
2023/11/16 19:08:22;;;;;;;11.86;6.18;;;;;;;5.90;100.00;100152.72;5048935;56;1142992;-73
2023/11/16 19:13:28;;;;;;;14.20;7.07;;;;;;;5.89;100.00;100143.16;5067390;56;1140909;-75
2023/11/16 19:18:33;;;;;;;123.77;44.50;;;;;;;5.91;100.00;100125.07;5004064;57;1140990;-75
2023/11/16 19:23:41;;;;;;;149.47;59.57;;;;;;;6.11;100.00;100119.00;5049591;56;1145283;-73
2023/11/16 19:28:46;;;;;;;111.23;52.80;;;;;;;6.11;100.00;100119.00;5058433;56;1145079;-74
2023/11/16 19:33:52;;;;;;;99.97;45.50;;;;;;;6.21;100.00;100118.29;5073521;56;1145143;-71
2023/11/16 19:39:07;;;;;;;27.97;13.70;;;;;;;6.22;100.00;100123.07;5099547;56;1143049;-70
2023/11/16 19:44:05;;;;;;;1105.20;341.73;;;;;;;6.18;100.00;100122.42;5124416;56;1142836;-73
2023/11/16 19:49:13;;;;;;;254.10;88.57;;;;;;;6.16;100.00;100121.68;5145026;56;1149269;-70
2023/11/16 19:54:18;;;;;;;90.53;39.80;;;;;;;6.22;100.00;100123.07;5119694;56;1145206;-72
2023/11/16 19:59:25;;;;;;;66.77;33.80;;;;;;;6.27;100.00;100117.87;5089279;56;1143065;-72
2023/11/16 20:04:30;;;;;;;53.65;26.90;;;;;;;6.35;100.00;100110.80;5014883;57;1142983;-72
2023/11/16 20:09:36;;;;;;;31.43;17.70;;;;;;;6.44;100.00;100111.49;5058586;56;1142923;-69
2023/11/16 20:14:42;;;;;;;97.60;45.57;;;;;;;6.42;100.00;100105.50;5055832;56;1142960;-75
2023/11/16 20:19:48;;;;;;;57.58;22.42;;;;;;;6.38;100.00;100101.89;5043251;56;1142793;-73
2023/11/16 20:24:54;;;;;;;66.40;24.50;;;;;;;6.32;100.00;100097.41;5107184;56;1142898;-74
2023/11/16 20:30:01;;;;;;;61.80;24.10;;;;;;;6.29;100.00;100082.31;5044273;56;1143004;-75
2023/11/16 20:35:10;;;;;;;60.77;23.77;;;;;;;6.24;100.00;100083.11;5052984;56;1142739;-76
2023/11/16 20:40:17;;;;;;;114.67;51.73;;;;;;;6.20;100.00;100079.84;5087120;55;1142975;-74
2023/11/16 20:45:22;;;;;;;105.70;44.83;;;;;;;6.15;100.00;100077.14;5052901;56;1145144;-72
2023/11/16 20:50:29;;;;;;;113.08;49.70;;;;;;;6.09;100.00;100077.56;5084511;55;1145077;-73
2023/11/16 20:55:35;;;;;;;87.47;43.97;;;;;;;6.02;100.00;100082.84;5088958;55;1145058;-75
2023/11/16 21:00:40;;;;;;;89.00;40.57;;;;;;;5.97;100.00;100082.66;5054100;56;1141056;-73
2023/11/16 21:05:47;;;;;;;90.37;43.13;;;;;;;5.89;100.00;100074.93;5114146;56;1143037;-73
2023/11/16 21:10:53;;;;;;;75.47;37.93;;;;;;;5.75;100.00;100069.70;5138065;56;1143365;-72
2023/11/16 21:15:59;;;;;;;82.20;39.70;;;;;;;5.65;100.00;100064.22;5157874;56;1142974;-73
2023/11/16 21:21:07;;;;;;;74.03;34.37;;;;;;;5.62;100.00;100067.03;5130854;56;1143081;-73
2023/11/16 21:26:12;;;;;;;128.13;39.17;;;;;;;5.64;100.00;100068.63;5122693;56;1143059;-72
2023/11/16 21:31:18;;;;;;;186.10;68.73;;;;;;;5.61;100.00;100085.03;5079505;56;1145215;-73
2023/11/16 21:36:23;;;;;;;122.35;42.95;;;;;;;5.48;100.00;100076.27;5073608;56;1143174;-73
2023/11/16 21:41:29;;;;;;;49.17;18.07;;;;;;;5.35;100.00;100080.10;5090827;55;1143150;-72
2023/11/16 21:46:37;;;;;;;33.15;17.15;;;;;;;5.25;100.00;100089.03;5083926;56;1143099;-73
2023/11/16 21:51:43;;;;;;;27.83;15.30;;;;;;;5.21;100.00;100090.61;5062409;56;1143011;-72
2023/11/16 21:56:49;;;;;;;27.60;15.00;;;;;;;5.18;100.00;100094.30;5053301;56;1143302;-72
2023/11/16 22:01:54;;;;;;;23.77;11.93;;;;;;;5.18;100.00;100086.43;5018155;57;1142945;-72
2023/11/16 22:07:00;;;;;;;18.93;11.63;;;;;;;5.22;100.00;100080.03;5048353;56;1142986;-72
2023/11/16 22:12:07;;;;;;;25.13;14.13;;;;;;;5.30;100.00;100084.34;4963618;57;1143031;-72
2023/11/16 22:17:12;;;;;;;31.90;18.43;;;;;;;5.33;100.00;100085.94;5146443;56;1140642;-72
2023/11/16 22:22:18;;;;;;;37.43;20.37;;;;;;;5.35;100.00;100085.84;5057001;56;1145781;-73
2023/11/16 22:27:24;;;;;;;36.10;19.42;;;;;;;5.36;100.00;100085.72;5054509;56;1142836;-72
2023/11/16 22:32:30;;;;;;;20.02;11.90;;;;;;;5.35;100.00;100076.67;5012703;57;1143066;-73
2023/11/16 22:37:37;;;;;;;17.35;8.38;;;;;;;5.32;100.00;100082.95;5061787;56;1143189;-72
2023/11/16 22:42:44;;;;;;;34.63;19.13;;;;;;;5.37;100.00;100080.85;5104472;55;1140521;-72
2023/11/16 22:47:49;;;;;;;50.93;27.00;;;;;;;5.37;100.00;100079.55;5070240;56;1142629;-72